Time,TemperatureF,DewpointF,PressureIn,WindDirection,WindDirectionDegrees,WindSpeedMPH,WindSpeedGustMPH,Humidity,HourlyPrecipIn,Conditions,Clouds,dailyrainin,SoftwareType,DateUTC
2013-09-08 00:01:00,69.6,65.9,29.93,NE,45,0.0,0.0,88,0.00,,---,0.02,VWS V14.01,2013-09-08 04:01:00,
2013-09-08 00:02:00,69.6,65.9,29.93,NE,45,0.0,0.0,88,0.00,,---,0.00,VWS V14.01,2013-09-08 04:02:00,
2013-09-08 00:04:00,69.8,66.1,29.94,NE,45,0.0,0.0,88,0.00,,---,0.00,VWS V14.01,2013-09-08 04:04:00,
2013-09-08 00:05:00,69.8,66.1,29.93,NE,45,0.0,0.0,88,0.00,,---,0.00,VWS V14.01,2013-09-08 04:05:00,
2013-09-08 00:09:00,69.9,66.2,29.93,NE,45,0.0,0.0,88,0.00,,---,0.00,VWS V14.01,2013-09-08 04:09:00,
2013-09-08 00:13:00,69.9,65.9,29.93,NE,45,0.0,0.0,87,0.00,,---,0.00,VWS V14.01,2013-09-08 04:13:00,
2013-09-08 00:18:00,69.9,65.9,29.93,North,0,0.0,0.0,87,0.00,,---,0.00,VWS V14.01,2013-09-08 04:18:00,
2013-09-08 00:23:00,69.9,65.9,29.93,North,0,0.0,0.0,87,0.00,,---,0.00,VWS V14.01,2013-09-08 04:23:00,
2013-09-08 00:28:00,69.9,65.9,29.93,North,0,0.0,0.0,87,0.00,,---,0.00,VWS V14.01,2013-09-08 04:28:00,
2013-09-08 00:33:00,69.8,65.8,29.93,North,0,0.0,0.0,87,0.00,,---,0.00,VWS V14.01,2013-09-08 04:33:00,
2013-09-08 00:38:00,69.6,65.2,29.94,North,0,0.0,0.0,86,0.00,,---,0.00,VWS V14.01,2013-09-08 04:38:00,
2013-09-08 00:43:00,69.6,65.2,29.94,North,0,0.0,0.0,86,0.00,,---,0.00,VWS V14.01,2013-09-08 04:43:00,
2013-09-08 00:48:00,69.6,65.2,29.94,North,0,0.0,0.0,86,0.00,,---,0.00,VWS V14.01,2013-09-08 04:48:00,
2013-09-08 00:53:00,69.6,65.6,29.95,North,0,0.0,0.0,87,0.00,,---,0.00,VWS V14.01,2013-09-08 04:53:00,
2013-09-08 00:58:00,69.4,65.4,29.95,North,0,0.0,0.0,87,0.00,,---,0.00,VWS V14.01,2013-09-08 04:58:00,
2013-09-08 01:03:00,69.4,65.4,29.95,North,0,0.0,0.0,87,0.00,,---,0.00,VWS V14.01,2013-09-08 05:03:00,
2013-09-08 01:08:00,69.6,65.6,29.95,NNE,22,0.0,0.0,87,0.00,,---,0.00,VWS V14.01,2013-09-08 05:08:00,
2013-09-08 01:13:00,69.6,65.6,29.95,NNE,22,0.0,0.0,87,0.00,,---,0.00,VWS V14.01,2013-09-08 05:13:00,
2013-09-08 01:18:00,69.6,65.6,29.95,ENE,68,0.0,0.0,87,0.00,,---,0.00,VWS V14.01,2013-09-08 05:18:00,
2013-09-08 01:23:00,69.6,65.6,29.95,NNE,22,0.0,0.0,87,0.00,,---,0.00,VWS V14.01,2013-09-08 05:23:00,
2013-09-08 01:28:00,69.6,65.6,29.96,NE,45,0.0,0.0,87,0.00,,---,0.00,VWS V14.01,2013-09-08 05:28:00,
2013-09-08 01:33:00,69.6,65.6,29.96,NNE,22,0.0,0.0,87,0.00,,---,0.00,VWS V14.01,2013-09-08 05:33:00,
2013-09-08 01:38:00,69.6,65.6,29.96,NE,45,0.0,0.0,87,0.00,,---,0.00,VWS V14.01,2013-09-08 05:38:00,
2013-09-08 01:43:00,69.8,65.8,29.96,NNE,22,0.0,0.0,87,0.00,,---,0.00,VWS V14.01,2013-09-08 05:43:00,
2013-09-08 01:48:00,69.6,65.2,29.96,ENE,68,0.0,0.0,86,0.00,,---,0.00,VWS V14.01,2013-09-08 05:48:00,
2013-09-08 01:53:00,69.6,65.2,29.96,ENE,68,0.0,0.0,86,0.00,,---,0.00,VWS V14.01,2013-09-08 05:53:00,
2013-09-08 01:58:00,69.6,65.2,29.96,North,0,0.0,0.0,86,0.00,,---,0.00,VWS V14.01,2013-09-08 05:58:00,
2013-09-08 02:03:00,69.6,65.2,29.96,North,0,0.0,0.0,86,0.00,,---,0.00,VWS V14.01,2013-09-08 06:03:00,
2013-09-08 02:08:00,69.6,65.2,29.96,NNE,22,0.0,0.0,86,0.00,,---,0.00,VWS V14.01,2013-09-08 06:08:00,
2013-09-08 02:13:00,69.6,65.2,29.96,ENE,68,0.0,0.0,86,0.00,,---,0.00,VWS V14.01,2013-09-08 06:13:00,
2013-09-08 02:18:00,69.6,65.2,29.96,NNE,22,0.0,0.0,86,0.00,,---,0.00,VWS V14.01,2013-09-08 06:18:00,
2013-09-08 02:23:00,69.6,65.2,29.97,NE,45,0.0,0.0,86,0.00,,---,0.00,VWS V14.01,2013-09-08 06:23:00,
2013-09-08 02:28:00,69.4,65.0,29.97,NE,45,0.0,0.0,86,0.00,,---,0.00,VWS V14.01,2013-09-08 06:28:00,
2013-09-08 02:33:00,69.4,65.0,29.97,North,0,0.0,0.0,86,0.00,,---,0.00,VWS V14.01,2013-09-08 06:33:00,
2013-09-08 02:38:00,69.4,65.0,29.97,NW,315,0.0,0.0,86,0.00,,---,0.00,VWS V14.01,2013-09-08 06:38:00,
2013-09-08 02:43:00,69.4,65.0,29.97,NNE,22,0.0,0.0,86,0.00,,---,0.00,VWS V14.01,2013-09-08 06:43:00,
2013-09-08 02:48:00,69.2,64.8,29.97,NNE,22,0.0,0.0,86,0.00,,---,0.00,VWS V14.01,2013-09-08 06:48:00,
2013-09-08 02:53:00,69.0,64.6,29.97,NE,45,0.0,0.0,86,0.00,,---,0.00,VWS V14.01,2013-09-08 06:53:00,
2013-09-08 02:58:00,69.0,64.3,29.98,ENE,68,0.0,0.0,85,0.00,,---,0.00,VWS V14.01,2013-09-08 06:58:00,
2013-09-08 03:03:00,69.0,64.3,29.97,NNE,22,7.8,7.8,85,0.00,,---,0.00,VWS V14.01,2013-09-08 07:03:00,
2013-09-08 03:08:00,68.9,64.2,29.97,NE,45,0.0,0.0,85,0.00,,---,0.00,VWS V14.01,2013-09-08 07:08:00,
2013-09-08 03:13:00,68.9,64.2,29.98,East,90,0.0,0.0,85,0.00,,---,0.00,VWS V14.01,2013-09-08 07:13:00,
2013-09-08 03:18:00,68.7,64.0,29.98,ENE,68,0.0,0.0,85,0.00,,---,0.00,VWS V14.01,2013-09-08 07:18:00,
2013-09-08 03:23:00,68.7,64.0,29.97,ENE,68,0.0,0.0,85,0.00,,---,0.00,VWS V14.01,2013-09-08 07:23:00,
2013-09-08 03:28:00,68.7,64.0,29.98,ENE,68,0.0,0.0,85,0.00,,---,0.00,VWS V14.01,2013-09-08 07:28:00,
2013-09-08 03:33:00,68.7,64.0,29.98,North,0,0.0,0.0,85,0.00,,---,0.00,VWS V14.01,2013-09-08 07:33:00,
2013-09-08 03:38:00,68.7,64.0,29.98,NE,45,0.0,0.0,85,0.00,,---,0.00,VWS V14.01,2013-09-08 07:38:00,
2013-09-08 03:43:00,68.7,64.0,29.98,NE,45,0.0,0.0,85,0.00,,---,0.00,VWS V14.01,2013-09-08 07:43:00,
2013-09-08 03:48:00,68.5,63.8,29.98,NE,45,0.0,0.0,85,0.00,,---,0.00,VWS V14.01,2013-09-08 07:48:00,
2013-09-08 03:53:00,68.5,63.8,29.98,North,0,0.0,0.0,85,0.00,,---,0.00,VWS V14.01,2013-09-08 07:53:00,
2013-09-08 03:58:00,68.5,63.8,29.98,NNE,22,0.0,5.1,85,0.00,,---,0.00,VWS V14.01,2013-09-08 07:58:00,
2013-09-08 04:03:00,68.5,63.5,29.98,NNE,22,0.0,0.0,84,0.00,,---,0.00,VWS V14.01,2013-09-08 08:03:00,
2013-09-08 04:08:00,68.3,63.3,29.98,NE,45,0.0,0.0,84,0.00,,---,0.00,VWS V14.01,2013-09-08 08:08:00,
2013-09-08 04:13:00,68.3,63.3,29.99,NE,45,0.0,0.0,84,0.00,,---,0.00,VWS V14.01,2013-09-08 08:13:00,
2013-09-08 04:18:00,68.3,63.3,29.99,NNE,22,0.0,0.0,84,0.00,,---,0.00,VWS V14.01,2013-09-08 08:18:00,
2013-09-08 04:23:00,68.1,63.1,29.98,NE,45,7.8,7.8,84,0.00,,---,0.00,VWS V14.01,2013-09-08 08:23:00,
2013-09-08 04:28:00,68.1,63.1,29.99,ENE,68,0.0,3.5,84,0.00,,---,0.00,VWS V14.01,2013-09-08 08:28:00,
2013-09-08 04:33:00,67.8,62.8,29.99,ENE,68,4.9,4.9,84,0.00,,---,0.00,VWS V14.01,2013-09-08 08:33:00,
2013-09-08 04:38:00,67.8,62.8,29.99,ENE,68,1.3,1.3,84,0.00,,---,0.00,VWS V14.01,2013-09-08 08:38:00,
2013-09-08 04:43:00,67.6,62.6,29.99,NE,45,0.0,0.0,84,0.00,,---,0.00,VWS V14.01,2013-09-08 08:43:00,
2013-09-08 04:48:00,67.6,62.6,29.99,NE,45,0.0,0.0,84,0.00,,---,0.00,VWS V14.01,2013-09-08 08:48:00,
2013-09-08 04:53:00,67.6,62.6,30.00,NE,45,3.1,3.1,84,0.00,,---,0.00,VWS V14.01,2013-09-08 08:53:00,
2013-09-08 04:58:00,67.4,62.4,30.00,East,90,1.3,1.3,84,0.00,,---,0.00,VWS V14.01,2013-09-08 08:58:00,
2013-09-08 05:03:00,67.4,62.4,30.00,NNE,22,0.0,0.0,84,0.00,,---,0.00,VWS V14.01,2013-09-08 09:03:00,
2013-09-08 05:08:00,67.2,61.9,30.00,NNE,22,0.0,0.0,83,0.00,,---,0.00,VWS V14.01,2013-09-08 09:08:00,
2013-09-08 05:13:00,67.2,61.9,30.00,NE,45,0.0,0.0,83,0.00,,---,0.00,VWS V14.01,2013-09-08 09:13:00,
2013-09-08 05:18:00,67.1,61.8,30.00,NE,45,0.0,0.0,83,0.00,,---,0.00,VWS V14.01,2013-09-08 09:18:00,
2013-09-08 05:23:00,67.1,61.8,30.01,ENE,68,0.0,0.0,83,0.00,,---,0.00,VWS V14.01,2013-09-08 09:23:00,
2013-09-08 05:28:00,66.9,61.2,30.01,East,90,0.0,0.0,82,0.00,,---,0.00,VWS V14.01,2013-09-08 09:28:00,
2013-09-08 05:33:00,66.9,61.2,30.01,NE,45,0.0,0.0,82,0.00,,---,0.00,VWS V14.01,2013-09-08 09:33:00,
2013-09-08 05:38:00,66.9,61.2,30.02,NE,45,0.0,0.0,82,0.00,,---,0.00,VWS V14.01,2013-09-08 09:38:00,
2013-09-08 05:43:00,66.9,61.2,30.02,ENE,68,0.0,0.0,82,0.00,,---,0.00,VWS V14.01,2013-09-08 09:43:00,
2013-09-08 05:48:00,66.7,61.0,30.02,NE,45,3.8,3.8,82,0.00,,---,0.00,VWS V14.01,2013-09-08 09:48:00,
2013-09-08 05:53:00,66.7,60.7,30.02,East,90,0.0,0.0,81,0.00,,---,0.00,VWS V14.01,2013-09-08 09:53:00,
2013-09-08 05:58:00,66.5,60.5,30.02,NE,45,0.0,2.4,81,0.00,,---,0.00,VWS V14.01,2013-09-08 09:58:00,
2013-09-08 06:03:00,66.5,60.5,30.02,East,90,1.5,1.5,81,0.00,,---,0.00,VWS V14.01,2013-09-08 10:03:00,
2013-09-08 06:08:00,66.5,60.5,30.02,ENE,68,0.0,0.0,81,0.00,,---,0.00,VWS V14.01,2013-09-08 10:08:00,
2013-09-08 06:13:00,66.5,60.2,30.02,ENE,68,0.0,0.0,80,0.00,,---,0.00,VWS V14.01,2013-09-08 10:13:00,
2013-09-08 06:18:00,66.3,60.0,30.02,NE,45,0.0,0.0,80,0.00,,---,0.00,VWS V14.01,2013-09-08 10:18:00,
2013-09-08 06:23:00,66.3,60.0,30.03,ENE,68,0.0,0.0,80,0.00,,---,0.00,VWS V14.01,2013-09-08 10:23:00,
2013-09-08 06:28:00,66.2,59.9,30.03,NNE,22,0.0,0.0,80,0.00,,---,0.00,VWS V14.01,2013-09-08 10:28:00,
2013-09-08 06:33:00,66.2,59.9,30.03,ENE,68,0.0,0.0,80,0.00,,---,0.00,VWS V14.01,2013-09-08 10:33:00,
2013-09-08 06:38:00,66.0,59.7,30.03,ENE,68,0.0,0.0,80,0.00,,---,0.00,VWS V14.01,2013-09-08 10:38:00,
2013-09-08 06:43:00,66.0,59.7,30.03,South,180,0.0,3.3,80,0.00,,---,0.00,VWS V14.01,2013-09-08 10:43:00,
2013-09-08 06:48:00,66.0,59.7,30.04,ENE,68,0.0,0.0,80,0.00,,---,0.00,VWS V14.01,2013-09-08 10:48:00,
2013-09-08 06:53:00,66.0,59.7,30.04,NE,45,0.0,0.0,80,0.00,,---,0.00,VWS V14.01,2013-09-08 10:53:00,
2013-09-08 06:58:00,66.0,59.7,30.04,NNE,22,4.6,4.6,80,0.00,,---,0.00,VWS V14.01,2013-09-08 10:58:00,
2013-09-08 07:03:00,65.8,59.5,30.04,NNE,22,4.6,4.6,80,0.00,,---,0.00,VWS V14.01,2013-09-08 11:03:00,
2013-09-08 07:08:00,65.8,59.5,30.05,NNE,22,0.0,0.0,80,0.00,,---,0.00,VWS V14.01,2013-09-08 11:08:00,
2013-09-08 07:13:00,66.0,59.7,30.05,NE,45,0.0,0.0,80,0.00,,---,0.00,VWS V14.01,2013-09-08 11:13:00,
2013-09-08 07:18:00,66.0,59.7,30.05,NE,45,0.0,0.0,80,0.00,,---,0.00,VWS V14.01,2013-09-08 11:18:00,
2013-09-08 07:23:00,66.0,59.7,30.05,NE,45,0.0,0.0,80,0.00,,---,0.00,VWS V14.01,2013-09-08 11:23:00,
2013-09-08 07:28:00,66.0,59.7,30.06,NNE,22,4.4,4.4,80,0.00,,---,0.00,VWS V14.01,2013-09-08 11:28:00,
2013-09-08 07:33:00,66.0,59.7,30.06,NE,45,0.0,0.0,80,0.00,,---,0.00,VWS V14.01,2013-09-08 11:33:00,
2013-09-08 07:38:00,66.0,59.7,30.06,ESE,112,0.0,0.0,80,0.00,,---,0.00,VWS V14.01,2013-09-08 11:38:00,
2013-09-08 07:43:00,65.8,59.5,30.06,SSE,158,4.9,4.9,80,0.00,,---,0.00,VWS V14.01,2013-09-08 11:43:00,
2013-09-08 07:48:00,65.8,59.1,30.07,NNE,22,0.0,0.0,79,0.00,,---,0.00,VWS V14.01,2013-09-08 11:48:00,
2013-09-08 07:53:00,65.6,58.9,30.07,ENE,68,0.0,0.0,79,0.00,,---,0.00,VWS V14.01,2013-09-08 11:53:00,
2013-09-08 07:58:00,65.4,58.7,30.08,ENE,68,0.0,0.0,79,0.00,,---,0.00,VWS V14.01,2013-09-08 11:58:00,
2013-09-08 08:03:00,65.4,58.4,30.08,ENE,68,2.4,2.4,78,0.00,,---,0.00,VWS V14.01,2013-09-08 12:03:00,
2013-09-08 08:08:00,65.3,57.9,30.08,NE,45,0.0,0.0,77,0.00,,---,0.00,VWS V14.01,2013-09-08 12:08:00,
2013-09-08 08:13:00,65.1,57.4,30.08,ENE,68,8.2,8.2,76,0.00,,---,0.00,VWS V14.01,2013-09-08 12:13:00,
2013-09-08 08:18:00,64.9,56.8,30.09,ESE,112,2.0,2.0,75,0.00,,---,0.00,VWS V14.01,2013-09-08 12:18:00,
2013-09-08 08:23:00,64.9,56.4,30.09,NE,45,5.1,5.1,74,0.00,,---,0.00,VWS V14.01,2013-09-08 12:23:00,
2013-09-08 08:28:00,64.9,56.4,30.09,ENE,68,0.0,1.5,74,0.00,,---,0.00,VWS V14.01,2013-09-08 12:28:00,
2013-09-08 08:33:00,64.9,56.4,30.09,NE,45,7.3,7.3,74,0.00,,---,0.00,VWS V14.01,2013-09-08 12:33:00,
2013-09-08 08:38:00,64.9,56.4,30.09,NE,45,2.6,2.6,74,0.00,,---,0.00,VWS V14.01,2013-09-08 12:38:00,
2013-09-08 08:43:00,64.9,56.4,30.09,NE,45,1.3,1.3,74,0.00,,---,0.00,VWS V14.01,2013-09-08 12:43:00,
2013-09-08 08:48:00,64.9,56.4,30.09,NNE,22,7.8,7.8,74,0.00,,---,0.00,VWS V14.01,2013-09-08 12:48:00,
2013-09-08 08:53:00,64.7,55.9,30.09,ESE,112,0.0,0.0,73,0.00,,---,0.00,VWS V14.01,2013-09-08 12:53:00,
2013-09-08 08:58:00,64.7,55.9,30.10,East,90,0.0,0.0,73,0.00,,---,0.00,VWS V14.01,2013-09-08 12:58:00,
2013-09-08 09:03:00,64.9,56.0,30.09,ENE,68,0.0,0.0,73,0.00,,---,0.00,VWS V14.01,2013-09-08 13:03:00,
2013-09-08 09:08:00,64.7,55.9,30.09,East,90,2.0,2.0,73,0.00,,---,0.00,VWS V14.01,2013-09-08 13:08:00,
2013-09-08 09:13:00,64.9,56.0,30.09,North,0,1.3,1.3,73,0.00,,---,0.00,VWS V14.01,2013-09-08 13:13:00,
2013-09-08 09:18:00,65.1,56.2,30.09,ENE,68,0.0,0.0,73,0.00,,---,0.00,VWS V14.01,2013-09-08 13:18:00,
2013-09-08 09:23:00,65.1,55.9,30.09,NE,45,5.5,5.5,72,0.00,,---,0.00,VWS V14.01,2013-09-08 13:23:00,
2013-09-08 09:28:00,65.1,55.9,30.09,East,90,0.0,0.0,72,0.00,,---,0.00,VWS V14.01,2013-09-08 13:28:00,
2013-09-08 09:33:00,65.3,56.0,30.10,ENE,68,7.3,7.3,72,0.00,,---,0.00,VWS V14.01,2013-09-08 13:33:00,
2013-09-08 09:38:00,65.4,56.2,30.10,ENE,68,0.0,0.0,72,0.00,,---,0.00,VWS V14.01,2013-09-08 13:38:00,
2013-09-08 09:43:00,65.4,55.8,30.10,ENE,68,0.0,0.0,71,0.00,,---,0.00,VWS V14.01,2013-09-08 13:43:00,
2013-09-08 09:48:00,65.4,55.8,30.10,East,90,0.0,0.0,71,0.00,,---,0.00,VWS V14.01,2013-09-08 13:48:00,
2013-09-08 09:53:00,65.4,55.8,30.10,ENE,68,1.3,6.7,71,0.00,,---,0.00,VWS V14.01,2013-09-08 13:53:00,
2013-09-08 09:58:00,65.3,55.3,30.10,East,90,0.0,2.0,70,0.00,,---,0.00,VWS V14.01,2013-09-08 13:58:00,
2013-09-08 10:03:00,65.3,55.3,30.09,NE,45,13.6,13.6,70,0.00,,---,0.00,VWS V14.01,2013-09-08 14:03:00,
2013-09-08 10:08:00,65.3,55.3,30.10,East,90,2.4,2.4,70,0.00,,---,0.00,VWS V14.01,2013-09-08 14:08:00,
2013-09-08 10:13:00,65.4,55.0,30.10,NE,45,8.0,8.0,69,0.00,,---,0.00,VWS V14.01,2013-09-08 14:13:00,
2013-09-08 10:18:00,65.4,55.4,30.10,NE,45,0.0,0.0,70,0.00,,---,0.00,VWS V14.01,2013-09-08 14:18:00,
2013-09-08 10:23:00,65.4,55.4,30.10,NNE,22,7.1,7.1,70,0.00,,---,0.00,VWS V14.01,2013-09-08 14:23:00,
2013-09-08 10:28:00,65.6,55.2,30.10,East,90,6.4,6.4,69,0.00,,---,0.00,VWS V14.01,2013-09-08 14:28:00,
2013-09-08 10:33:00,65.8,55.0,30.10,ESE,112,2.4,2.4,68,0.00,,---,0.00,VWS V14.01,2013-09-08 14:33:00,
2013-09-08 10:38:00,66.0,55.2,30.10,ENE,68,0.0,0.0,68,0.00,,---,0.00,VWS V14.01,2013-09-08 14:38:00,
2013-09-08 10:43:00,66.0,54.7,30.10,ENE,68,3.5,3.5,67,0.00,,---,0.00,VWS V14.01,2013-09-08 14:43:00,
2013-09-08 10:48:00,66.0,54.7,30.10,NE,45,7.8,7.8,67,0.00,,---,0.00,VWS V14.01,2013-09-08 14:48:00,
2013-09-08 10:53:00,66.2,54.5,30.10,NE,45,0.0,11.4,66,0.00,,---,0.00,VWS V14.01,2013-09-08 14:53:00,
2013-09-08 10:58:00,66.3,55.0,30.11,NE,45,0.0,2.4,67,0.00,,---,0.00,VWS V14.01,2013-09-08 14:58:00,
2013-09-08 11:03:00,66.3,55.0,30.11,ENE,68,0.0,0.0,67,0.00,,---,0.00,VWS V14.01,2013-09-08 15:03:00,
2013-09-08 11:08:00,66.7,55.0,30.11,NE,45,2.2,2.2,66,0.00,,---,0.00,VWS V14.01,2013-09-08 15:08:00,
2013-09-08 11:13:00,66.7,55.0,30.11,ENE,68,3.5,3.5,66,0.00,,---,0.00,VWS V14.01,2013-09-08 15:13:00,
2013-09-08 11:18:00,66.9,55.2,30.11,East,90,0.0,0.0,66,0.00,,---,0.00,VWS V14.01,2013-09-08 15:18:00,
2013-09-08 11:23:00,67.2,55.0,30.11,NE,45,4.6,4.6,65,0.00,,---,0.00,VWS V14.01,2013-09-08 15:23:00,
2013-09-08 11:28:00,67.2,55.0,30.11,SE,135,0.0,2.6,65,0.00,,---,0.00,VWS V14.01,2013-09-08 15:28:00,
2013-09-08 11:33:00,67.6,55.4,30.11,ENE,68,2.4,2.4,65,0.00,,---,0.00,VWS V14.01,2013-09-08 15:33:00,
2013-09-08 11:38:00,67.8,55.6,30.11,North,0,7.3,7.3,65,0.00,,---,0.00,VWS V14.01,2013-09-08 15:38:00,
2013-09-08 11:43:00,68.0,55.8,30.11,NE,45,6.7,6.7,65,0.00,,---,0.00,VWS V14.01,2013-09-08 15:43:00,
2013-09-08 11:48:00,68.3,55.7,30.10,ESE,112,0.0,0.0,64,0.00,,---,0.00,VWS V14.01,2013-09-08 15:48:00,
2013-09-08 11:53:00,68.7,56.0,30.11,ESE,112,2.4,5.5,64,0.00,,---,0.00,VWS V14.01,2013-09-08 15:53:00,
2013-09-08 11:58:00,68.7,55.2,30.10,ENE,68,0.0,5.1,62,0.00,,---,0.00,VWS V14.01,2013-09-08 15:58:00,
2013-09-08 12:03:00,68.7,55.2,30.10,SSE,158,0.0,0.0,62,0.00,,---,0.00,VWS V14.01,2013-09-08 16:03:00,
2013-09-08 12:08:00,68.9,54.9,30.10,North,0,6.7,6.7,61,0.00,,---,0.00,VWS V14.01,2013-09-08 16:08:00,
2013-09-08 12:13:00,68.9,54.9,30.10,North,0,9.1,9.1,61,0.00,,---,0.00,VWS V14.01,2013-09-08 16:13:00,
2013-09-08 12:18:00,69.0,54.5,30.11,ENE,68,0.0,0.0,60,0.00,,---,0.00,VWS V14.01,2013-09-08 16:18:00,
2013-09-08 12:24:00,69.0,54.5,30.10,ENE,68,4.2,4.2,60,0.00,,---,0.00,VWS V14.01,2013-09-08 16:24:00,
2013-09-08 12:29:00,69.0,54.5,30.11,East,90,2.9,2.9,60,0.00,,---,0.00,VWS V14.01,2013-09-08 16:29:00,
2013-09-08 12:34:00,69.4,54.9,30.11,NNE,22,1.7,2.0,60,0.00,,---,0.00,VWS V14.01,2013-09-08 16:34:00,
2013-09-08 12:39:00,69.6,55.1,30.11,East,90,0.8,0.8,60,0.00,,---,0.00,VWS V14.01,2013-09-08 16:39:00,
2013-09-08 12:44:00,69.6,54.7,30.10,NE,45,0.0,0.0,59,0.00,,---,0.00,VWS V14.01,2013-09-08 16:44:00,
2013-09-08 12:49:00,69.6,55.1,30.10,ENE,68,0.0,0.0,60,0.00,,---,0.00,VWS V14.01,2013-09-08 16:49:00,
2013-09-08 12:54:00,69.9,54.9,30.10,NE,45,7.1,7.1,59,0.00,,---,0.00,VWS V14.01,2013-09-08 16:54:00,
2013-09-08 12:59:00,69.9,54.9,30.10,NNE,22,0.0,0.0,59,0.00,,---,0.00,VWS V14.01,2013-09-08 16:59:00,
2013-09-08 13:04:00,70.3,55.3,30.10,NE,45,0.0,4.2,59,0.00,,---,0.00,VWS V14.01,2013-09-08 17:04:00,
2013-09-08 13:09:00,70.3,55.3,30.10,NE,45,8.0,8.0,59,0.00,,---,0.00,VWS V14.01,2013-09-08 17:09:00,
2013-09-08 13:14:00,70.3,54.8,30.10,East,90,4.4,4.4,58,0.00,,---,0.00,VWS V14.01,2013-09-08 17:14:00,
2013-09-08 13:19:00,70.3,54.8,30.10,ESE,112,1.5,4.6,58,0.00,,---,0.00,VWS V14.01,2013-09-08 17:19:00,
2013-09-08 13:24:00,70.3,55.3,30.11,NE,45,0.0,0.0,59,0.00,,---,0.00,VWS V14.01,2013-09-08 17:24:00,
2013-09-08 13:29:00,70.3,55.3,30.10,NE,45,0.0,0.0,59,0.00,,---,0.00,VWS V14.01,2013-09-08 17:29:00,
2013-09-08 13:34:00,70.3,54.8,30.10,NE,45,6.0,6.7,58,0.00,,---,0.00,VWS V14.01,2013-09-08 17:34:00,
2013-09-08 13:39:00,70.5,55.0,30.10,NE,45,6.0,6.0,58,0.00,,---,0.00,VWS V14.01,2013-09-08 17:39:00,
2013-09-08 13:44:00,70.3,54.8,30.10,East,90,4.2,4.2,58,0.00,,---,0.00,VWS V14.01,2013-09-08 17:44:00,
2013-09-08 13:49:00,70.5,55.0,30.10,ENE,68,0.0,4.6,58,0.00,,---,0.00,VWS V14.01,2013-09-08 17:49:00,
2013-09-08 13:54:00,70.5,55.0,30.10,East,90,2.0,2.0,58,0.00,,---,0.00,VWS V14.01,2013-09-08 17:54:00,
2013-09-08 13:59:00,70.3,54.4,30.10,NE,45,0.0,0.0,57,0.00,,---,0.00,VWS V14.01,2013-09-08 17:59:00,
2013-09-08 14:04:00,70.5,55.0,30.10,NE,45,4.6,4.6,58,0.00,,---,0.00,VWS V14.01,2013-09-08 18:04:00,
2013-09-08 14:09:00,70.5,54.5,30.10,ENE,68,7.1,7.1,57,0.00,,---,0.00,VWS V14.01,2013-09-08 18:09:00,
2013-09-08 14:14:00,70.5,54.5,30.10,NE,45,7.3,7.3,57,0.00,,---,0.00,VWS V14.01,2013-09-08 18:14:00,
2013-09-08 14:19:00,70.3,54.8,30.10,ENE,68,7.1,7.1,58,0.00,,---,0.00,VWS V14.01,2013-09-08 18:19:00,
2013-09-08 14:24:00,70.5,55.0,30.10,ESE,112,0.0,0.0,58,0.00,,---,0.00,VWS V14.01,2013-09-08 18:24:00,
2013-09-08 14:29:00,70.7,54.7,30.09,NW,315,0.0,0.0,57,0.00,,---,0.00,VWS V14.01,2013-09-08 18:29:00,
2013-09-08 14:34:00,70.7,55.2,30.10,NE,45,0.0,0.0,58,0.00,,---,0.00,VWS V14.01,2013-09-08 18:34:00,
2013-09-08 14:39:00,70.8,54.8,30.10,East,90,0.0,0.0,57,0.00,,---,0.00,VWS V14.01,2013-09-08 18:39:00,
2013-09-08 14:44:00,70.8,54.8,30.09,NE,45,7.3,7.3,57,0.00,,---,0.00,VWS V14.01,2013-09-08 18:44:00,
2013-09-08 14:49:00,70.8,54.8,30.08,NE,45,1.5,1.5,57,0.00,,---,0.00,VWS V14.01,2013-09-08 18:49:00,
2013-09-08 14:54:00,70.8,54.8,30.08,ENE,68,1.5,1.5,57,0.00,,---,0.00,VWS V14.01,2013-09-08 18:54:00,
2013-09-08 14:59:00,71.0,55.0,30.08,East,90,0.0,0.0,57,0.00,,---,0.00,VWS V14.01,2013-09-08 18:59:00,
2013-09-08 15:04:00,71.2,54.7,30.08,North,0,2.6,2.6,56,0.00,,---,0.00,VWS V14.01,2013-09-08 19:04:00,
2013-09-08 15:09:00,71.2,54.7,30.08,East,90,0.0,0.0,56,0.00,,---,0.00,VWS V14.01,2013-09-08 19:09:00,
2013-09-08 15:14:00,71.2,54.7,30.08,NE,45,2.6,2.6,56,0.00,,---,0.00,VWS V14.01,2013-09-08 19:14:00,
2013-09-08 15:19:00,71.0,54.5,30.07,ENE,68,1.3,1.3,56,0.00,,---,0.00,VWS V14.01,2013-09-08 19:19:00,
2013-09-08 15:24:00,71.0,55.0,30.07,North,0,6.9,6.9,57,0.00,,---,0.00,VWS V14.01,2013-09-08 19:24:00,
2013-09-08 15:29:00,71.0,55.0,30.07,ENE,68,3.3,3.3,57,0.00,,---,0.00,VWS V14.01,2013-09-08 19:29:00,
2013-09-08 15:34:00,71.0,55.0,30.06,ENE,68,2.6,2.6,57,0.00,,---,0.00,VWS V14.01,2013-09-08 19:34:00,
2013-09-08 15:39:00,70.8,54.8,30.06,NE,45,0.0,0.0,57,0.00,,---,0.00,VWS V14.01,2013-09-08 19:39:00,
2013-09-08 15:44:00,70.8,54.8,30.07,North,0,9.3,9.3,57,0.00,,---,0.00,VWS V14.01,2013-09-08 19:44:00,
2013-09-08 15:49:00,70.7,54.7,30.07,NE,45,5.1,5.1,57,0.00,,---,0.00,VWS V14.01,2013-09-08 19:49:00,
2013-09-08 15:54:00,70.5,54.5,30.07,SE,135,0.0,0.0,57,0.00,,---,0.00,VWS V14.01,2013-09-08 19:54:00,
2013-09-08 15:59:00,70.5,55.0,30.07,NE,45,7.1,7.1,58,0.00,,---,0.00,VWS V14.01,2013-09-08 19:59:00,
2013-09-08 16:04:00,70.5,55.0,30.07,ENE,68,1.7,3.3,58,0.00,,---,0.00,VWS V14.01,2013-09-08 20:04:00,
2013-09-08 16:09:00,70.5,55.0,30.07,ENE,68,7.3,7.3,58,0.00,,---,0.00,VWS V14.01,2013-09-08 20:09:00,
2013-09-08 16:14:00,70.3,54.8,30.08,NE,45,0.0,0.0,58,0.00,,---,0.00,VWS V14.01,2013-09-08 20:14:00,
2013-09-08 16:19:00,70.3,54.8,30.08,NNE,22,6.7,6.7,58,0.00,,---,0.00,VWS V14.01,2013-09-08 20:19:00,
2013-09-08 16:24:00,70.5,55.0,30.08,NE,45,4.0,4.0,58,0.00,,---,0.00,VWS V14.01,2013-09-08 20:24:00,
2013-09-08 16:29:00,70.3,54.8,30.08,ESE,112,2.9,2.9,58,0.00,,---,0.00,VWS V14.01,2013-09-08 20:29:00,
2013-09-08 16:34:00,70.3,54.8,30.07,ENE,68,0.0,0.0,58,0.00,,---,0.00,VWS V14.01,2013-09-08 20:34:00,
2013-09-08 16:39:00,70.3,54.8,30.07,North,0,2.9,2.9,58,0.00,,---,0.00,VWS V14.01,2013-09-08 20:39:00,
2013-09-08 16:44:00,70.3,54.8,30.06,NE,45,3.1,3.1,58,0.00,,---,0.00,VWS V14.01,2013-09-08 20:44:00,
2013-09-08 16:49:00,70.1,54.7,30.06,SE,135,7.1,7.1,58,0.00,,---,0.00,VWS V14.01,2013-09-08 20:49:00,
2013-09-08 16:54:00,69.9,54.0,30.07,NE,45,0.0,0.0,57,0.00,,---,0.00,VWS V14.01,2013-09-08 20:54:00,
2013-09-08 16:59:00,69.8,54.4,30.06,NE,45,0.0,0.0,58,0.00,,---,0.00,VWS V14.01,2013-09-08 20:59:00,
2013-09-08 17:04:00,69.6,54.2,30.07,ENE,68,0.0,2.2,58,0.00,,---,0.00,VWS V14.01,2013-09-08 21:04:00,
2013-09-08 17:09:00,69.6,54.2,30.07,NE,45,0.0,0.0,58,0.00,,---,0.00,VWS V14.01,2013-09-08 21:09:00,
2013-09-08 17:14:00,69.6,54.2,30.08,SE,135,0.0,0.0,58,0.00,,---,0.00,VWS V14.01,2013-09-08 21:14:00,
2013-09-08 17:19:00,69.6,54.2,30.08,NE,45,0.0,1.5,58,0.00,,---,0.00,VWS V14.01,2013-09-08 21:19:00,
2013-09-08 17:24:00,69.8,54.4,30.07,ENE,68,1.1,1.1,58,0.00,,---,0.00,VWS V14.01,2013-09-08 21:24:00,
2013-09-08 17:29:00,70.1,54.7,30.07,ENE,68,3.1,3.1,58,0.00,,---,0.00,VWS V14.01,2013-09-08 21:29:00,
2013-09-08 17:34:00,70.1,54.2,30.07,ENE,68,1.1,3.8,57,0.00,,---,0.00,VWS V14.01,2013-09-08 21:34:00,
2013-09-08 17:39:00,70.1,54.2,30.07,NE,45,1.5,1.5,57,0.00,,---,0.00,VWS V14.01,2013-09-08 21:39:00,
2013-09-08 17:44:00,70.3,54.8,30.07,NE,45,6.0,6.0,58,0.00,,---,0.00,VWS V14.01,2013-09-08 21:44:00,
2013-09-08 17:49:00,70.8,54.8,30.07,NE,45,3.5,6.4,57,0.00,,---,0.00,VWS V14.01,2013-09-08 21:49:00,
2013-09-08 17:54:00,71.2,54.7,30.06,ENE,68,0.0,0.0,56,0.00,,---,0.00,VWS V14.01,2013-09-08 21:54:00,
2013-09-08 17:59:00,70.8,54.3,30.06,ENE,68,2.4,2.4,56,0.00,,---,0.00,VWS V14.01,2013-09-08 21:59:00,
2013-09-08 18:04:00,70.7,54.2,30.06,SE,135,4.9,4.9,56,0.00,,---,0.00,VWS V14.01,2013-09-08 22:04:00,
2013-09-08 18:09:00,70.3,53.9,30.06,East,90,6.7,6.7,56,0.00,,---,0.00,VWS V14.01,2013-09-08 22:09:00,
2013-09-08 18:14:00,70.3,54.4,30.06,ENE,68,0.0,0.0,57,0.00,,---,0.00,VWS V14.01,2013-09-08 22:14:00,
2013-09-08 18:19:00,70.3,54.4,30.06,East,90,7.3,7.3,57,0.00,,---,0.00,VWS V14.01,2013-09-08 22:19:00,
2013-09-08 18:24:00,69.9,54.0,30.06,NE,45,5.3,5.3,57,0.00,,---,0.00,VWS V14.01,2013-09-08 22:24:00,
2013-09-08 18:29:00,69.4,53.0,30.06,ENE,68,2.6,2.6,56,0.00,,---,0.00,VWS V14.01,2013-09-08 22:29:00,
2013-09-08 18:34:00,69.0,53.2,30.06,NE,45,0.0,0.0,57,0.00,,---,0.00,VWS V14.01,2013-09-08 22:34:00,
2013-09-08 18:39:00,68.7,52.9,30.07,ESE,112,3.3,3.3,57,0.00,,---,0.00,VWS V14.01,2013-09-08 22:39:00,
2013-09-08 18:44:00,68.3,53.0,30.06,ENE,68,0.0,0.0,58,0.00,,---,0.00,VWS V14.01,2013-09-08 22:44:00,
2013-09-08 18:49:00,68.0,52.7,30.06,East,90,1.1,2.2,58,0.00,,---,0.00,VWS V14.01,2013-09-08 22:49:00,
2013-09-08 18:54:00,67.8,53.0,30.06,NE,45,0.0,0.0,59,0.00,,---,0.00,VWS V14.01,2013-09-08 22:54:00,
2013-09-08 18:59:00,67.8,53.0,30.06,NNE,22,0.0,0.0,59,0.00,,---,0.00,VWS V14.01,2013-09-08 22:59:00,
2013-09-08 19:04:00,67.8,53.0,30.06,ENE,68,2.2,2.2,59,0.00,,---,0.00,VWS V14.01,2013-09-08 23:04:00,
2013-09-08 19:09:00,67.8,53.0,30.06,NE,45,0.0,0.0,59,0.00,,---,0.00,VWS V14.01,2013-09-08 23:09:00,
2013-09-08 19:14:00,68.1,53.2,30.06,East,90,0.0,0.0,59,0.00,,---,0.00,VWS V14.01,2013-09-08 23:14:00,
2013-09-08 19:19:00,68.1,52.8,30.06,NNE,22,0.0,0.0,58,0.00,,---,0.00,VWS V14.01,2013-09-08 23:19:00,
2013-09-08 19:24:00,67.8,52.5,30.06,ESE,112,4.0,4.0,58,0.00,,---,0.00,VWS V14.01,2013-09-08 23:24:00,
2013-09-08 19:29:00,67.2,52.4,30.06,NE,45,0.0,0.0,59,0.00,,---,0.00,VWS V14.01,2013-09-08 23:29:00,
2013-09-08 19:34:00,66.7,51.9,30.06,ENE,68,0.0,0.0,59,0.00,,---,0.00,VWS V14.01,2013-09-08 23:34:00,
2013-09-08 19:39:00,66.3,52.0,30.05,East,90,0.0,0.0,60,0.00,,---,0.00,VWS V14.01,2013-09-08 23:39:00,
2013-09-08 19:44:00,65.8,51.5,30.05,NE,45,0.0,0.0,60,0.00,,---,0.00,VWS V14.01,2013-09-08 23:44:00,
2013-09-08 19:49:00,65.4,51.2,30.05,NE,45,0.0,0.0,60,0.00,,---,0.00,VWS V14.01,2013-09-08 23:49:00,
2013-09-08 19:54:00,65.1,51.3,30.05,ENE,68,0.0,0.0,61,0.00,,---,0.00,VWS V14.01,2013-09-08 23:54:00,
2013-09-08 19:59:00,64.9,51.2,30.05,ENE,68,0.0,0.0,61,0.00,,---,0.00,VWS V14.01,2013-09-08 23:59:00,
2013-09-08 20:04:00,64.7,51.4,30.05,NE,45,2.6,2.6,62,0.00,,---,0.00,VWS V14.01,2013-09-09 00:04:00,
2013-09-08 20:09:00,64.5,51.2,30.05,East,90,0.0,0.0,62,0.00,,---,0.00,VWS V14.01,2013-09-09 00:09:00,
2013-09-08 20:14:00,64.2,50.9,30.05,NE,45,0.0,0.0,62,0.00,,---,0.00,VWS V14.01,2013-09-09 00:14:00,
2013-09-08 20:19:00,64.2,50.9,30.05,NE,45,0.0,0.0,62,0.00,,---,0.00,VWS V14.01,2013-09-09 00:19:00,
2013-09-08 20:24:00,64.0,51.2,30.05,NE,45,0.0,0.0,63,0.00,,---,0.00,VWS V14.01,2013-09-09 00:24:00,
2013-09-08 20:29:00,63.6,50.8,30.05,NE,45,0.0,0.0,63,0.00,,---,0.00,VWS V14.01,2013-09-09 00:29:00,
2013-09-08 20:34:00,63.6,50.8,30.05,ENE,68,0.0,0.0,63,0.00,,---,0.00,VWS V14.01,2013-09-09 00:34:00,
2013-09-08 20:39:00,63.5,50.7,30.05,NE,45,0.0,0.0,63,0.00,,---,0.00,VWS V14.01,2013-09-09 00:39:00,
2013-09-08 20:44:00,63.5,50.7,30.05,ENE,68,0.0,0.0,63,0.00,,---,0.00,VWS V14.01,2013-09-09 00:44:00,
2013-09-08 20:49:00,63.3,50.9,30.05,ENE,68,0.0,0.0,64,0.00,,---,0.00,VWS V14.01,2013-09-09 00:49:00,
2013-09-08 20:54:00,63.3,50.9,30.06,ENE,68,0.0,0.0,64,0.00,,---,0.00,VWS V14.01,2013-09-09 00:54:00,
2013-09-08 20:59:00,63.1,50.7,30.05,ENE,68,0.0,0.0,64,0.00,,---,0.00,VWS V14.01,2013-09-09 00:59:00,
2013-09-08 21:04:00,63.1,50.7,30.05,ENE,68,0.0,0.0,64,0.00,,---,0.00,VWS V14.01,2013-09-09 01:04:00,
2013-09-08 21:09:00,62.9,50.5,30.06,NE,45,0.0,0.0,64,0.00,,---,0.00,VWS V14.01,2013-09-09 01:09:00,
2013-09-08 21:14:00,62.7,49.9,30.06,NE,45,0.0,0.0,63,0.00,,---,0.00,VWS V14.01,2013-09-09 01:14:00,
2013-09-08 21:19:00,62.6,49.8,30.06,ENE,68,0.0,0.0,63,0.00,,---,0.00,VWS V14.01,2013-09-09 01:19:00,
2013-09-08 21:24:00,62.4,49.7,30.06,ENE,68,0.0,0.0,63,0.00,,---,0.00,VWS V14.01,2013-09-09 01:24:00,
2013-09-08 21:29:00,62.4,50.1,30.06,ENE,68,0.0,0.0,64,0.00,,---,0.00,VWS V14.01,2013-09-09 01:29:00,
2013-09-08 21:34:00,62.2,49.9,30.06,ENE,68,0.0,0.0,64,0.00,,---,0.00,VWS V14.01,2013-09-09 01:34:00,
2013-09-08 21:39:00,62.0,49.7,30.06,ENE,68,0.0,0.0,64,0.00,,---,0.00,VWS V14.01,2013-09-09 01:39:00,
2013-09-08 21:44:00,61.8,49.5,30.06,East,90,0.0,0.0,64,0.00,,---,0.00,VWS V14.01,2013-09-09 01:44:00,
2013-09-08 21:49:00,61.7,49.4,30.06,ESE,112,0.0,0.0,64,0.00,,---,0.00,VWS V14.01,2013-09-09 01:49:00,
2013-09-08 21:54:00,61.5,49.2,30.07,SSE,158,0.0,0.0,64,0.00,,---,0.00,VWS V14.01,2013-09-09 01:54:00,
2013-09-08 21:59:00,61.3,49.5,30.07,SSE,158,0.0,0.0,65,0.00,,---,0.00,VWS V14.01,2013-09-09 01:59:00,
2013-09-08 22:04:00,61.1,49.3,30.07,SSE,158,0.0,0.0,65,0.00,,---,0.00,VWS V14.01,2013-09-09 02:04:00,
2013-09-08 22:09:00,60.9,49.1,30.07,East,90,0.0,0.0,65,0.00,,---,0.00,VWS V14.01,2013-09-09 02:09:00,
2013-09-08 22:14:00,60.9,49.1,30.07,ENE,68,0.0,0.0,65,0.00,,---,0.00,VWS V14.01,2013-09-09 02:14:00,
2013-09-08 22:19:00,60.6,49.2,30.06,ENE,68,0.0,0.0,66,0.00,,---,0.00,VWS V14.01,2013-09-09 02:19:00,
2013-09-08 22:24:00,60.6,49.2,30.06,ENE,68,0.0,0.0,66,0.00,,---,0.00,VWS V14.01,2013-09-09 02:24:00,
2013-09-08 22:29:00,60.6,49.2,30.06,East,90,0.0,0.0,66,0.00,,---,0.00,VWS V14.01,2013-09-09 02:29:00,
2013-09-08 22:34:00,60.4,49.0,30.06,ENE,68,0.0,0.0,66,0.00,,---,0.00,VWS V14.01,2013-09-09 02:34:00,
2013-09-08 22:39:00,60.4,49.0,30.05,NE,45,0.0,0.0,66,0.00,,---,0.00,VWS V14.01,2013-09-09 02:39:00,
2013-09-08 22:44:00,60.4,49.0,30.05,NE,45,0.0,0.0,66,0.00,,---,0.00,VWS V14.01,2013-09-09 02:44:00,
2013-09-08 22:49:00,60.2,48.8,30.05,ENE,68,0.0,0.0,66,0.00,,---,0.00,VWS V14.01,2013-09-09 02:49:00,
2013-09-08 22:54:00,60.0,48.6,30.05,ENE,68,0.0,0.0,66,0.00,,---,0.00,VWS V14.01,2013-09-09 02:54:00,
2013-09-08 22:59:00,60.0,48.6,30.05,NE,45,0.0,0.0,66,0.00,,---,0.00,VWS V14.01,2013-09-09 02:59:00,
2013-09-08 23:04:00,59.9,48.5,30.05,ENE,68,0.0,0.0,66,0.00,,---,0.00,VWS V14.01,2013-09-09 03:04:00,
2013-09-08 23:09:00,59.7,48.3,30.06,NE,45,0.0,0.0,66,0.00,,---,0.00,VWS V14.01,2013-09-09 03:09:00,
2013-09-08 23:14:00,59.7,48.3,30.06,NE,45,0.0,0.0,66,0.00,,---,0.00,VWS V14.01,2013-09-09 03:14:00,
2013-09-08 23:19:00,59.7,48.3,30.06,ENE,68,0.0,0.0,66,0.00,,---,0.00,VWS V14.01,2013-09-09 03:19:00,
2013-09-08 23:24:00,59.5,48.2,30.06,ENE,68,0.0,0.0,66,0.00,,---,0.00,VWS V14.01,2013-09-09 03:24:00,
2013-09-08 23:29:00,59.5,48.5,30.05,ENE,68,0.0,0.0,67,0.00,,---,0.00,VWS V14.01,2013-09-09 03:29:00,
2013-09-08 23:34:00,59.3,48.4,30.05,ENE,68,0.0,0.0,67,0.00,,---,0.00,VWS V14.01,2013-09-09 03:34:00,
2013-09-08 23:39:00,59.1,48.2,30.05,SSE,158,0.0,0.0,67,0.00,,---,0.00,VWS V14.01,2013-09-09 03:39:00,
2013-09-08 23:44:00,58.8,47.9,30.05,ENE,68,0.0,0.0,67,0.00,,---,0.00,VWS V14.01,2013-09-09 03:44:00,
2013-09-08 23:49:00,58.8,47.9,30.05,ENE,68,0.0,0.0,67,0.00,,---,0.00,VWS V14.01,2013-09-09 03:49:00,
2013-09-08 23:54:00,58.8,48.3,30.05,NE,45,0.0,0.0,68,0.00,,---,0.00,VWS V14.01,2013-09-09 03:54:00,
2013-09-08 23:59:00,58.8,48.3,30.06,NE,45,0.0,0.0,68,0.00,,---,0.00,VWS V14.01,2013-09-09 03:59:00,